sensor_id;sensor_type;location;lat;lon;timestamp;pressure;altitude;pressure_sealevel;temperature;humidity
50087;BME280;35967;50.718;7.050;2023-03-20T00:02:46;101107.59;;;10.91;93.45
50087;BME280;35967;50.718;7.050;2023-03-20T00:12:49;101125.72;;;10.85;93.75
50087;BME280;35967;50.718;7.050;2023-03-20T00:22:54;101135.34;;;10.73;94.26
50087;BME280;35967;50.718;7.050;2023-03-20T00:32:57;101131.81;;;10.79;93.51
50087;BME280;35967;50.718;7.050;2023-03-20T00:43:03;101146.41;;;10.79;93.21
50087;BME280;35967;50.718;7.050;2023-03-20T00:53:08;101154.22;;;10.72;92.61
50087;BME280;35967;50.718;7.050;2023-03-20T01:03:17;101155.31;;;10.57;92.17
50087;BME280;35967;50.718;7.050;2023-03-20T01:13:24;101169.97;;;10.52;92.45
50087;BME280;35967;50.718;7.050;2023-03-20T01:23:29;101175.13;;;10.51;91.97
50087;BME280;35967;50.718;7.050;2023-03-20T01:33:32;101175.06;;;10.54;90.94
50087;BME280;35967;50.718;7.050;2023-03-20T01:43:37;101162.22;;;10.54;90.90
50087;BME280;35967;50.718;7.050;2023-03-20T01:53:44;101149.34;;;10.54;90.28
50087;BME280;35967;50.718;7.050;2023-03-20T02:03:50;101136.53;;;10.51;89.22
50087;BME280;35967;50.718;7.050;2023-03-20T02:14:09;101129.94;;;10.28;88.59
50087;BME280;35967;50.718;7.050;2023-03-20T02:24:52;101141.84;;;10.34;88.88
50087;BME280;35967;50.718;7.050;2023-03-20T02:35:31;101151.28;;;10.35;89.00
50087;BME280;35967;50.718;7.050;2023-03-20T02:45:47;101150.47;;;10.31;89.24
50087;BME280;35967;50.718;7.050;2023-03-20T02:55:59;101129.84;;;10.34;89.93
50087;BME280;35967;50.718;7.050;2023-03-20T03:06:12;101123.94;;;10.29;89.79
50087;BME280;35967;50.718;7.050;2023-03-20T03:16:23;101140.19;;;10.33;89.22
50087;BME280;35967;50.718;7.050;2023-03-20T03:26:31;101151.56;;;10.13;90.14
50087;BME280;35967;50.718;7.050;2023-03-20T03:36:42;101153.09;;;10.26;90.52
50087;BME280;35967;50.718;7.050;2023-03-20T03:46:52;101156.56;;;10.24;90.31
50087;BME280;35967;50.718;7.050;2023-03-20T03:56:59;101125.00;;;10.11;90.53
50087;BME280;35967;50.718;7.050;2023-03-20T04:07:05;101148.06;;;10.19;90.26
50087;BME280;35967;50.718;7.050;2023-03-20T04:17:08;101152.72;;;9.87;90.67
50087;BME280;35967;50.718;7.050;2023-03-20T04:27:13;101174.19;;;9.85;90.74
50087;BME280;35967;50.718;7.050;2023-03-20T04:37:18;101162.09;;;9.93;91.43
50087;BME280;35967;50.718;7.050;2023-03-20T04:47:31;101158.69;;;9.91;91.36
50087;BME280;35967;50.718;7.050;2023-03-20T04:57:35;101150.34;;;9.70;90.28
50087;BME280;35967;50.718;7.050;2023-03-20T05:07:40;101130.66;;;9.68;88.81
50087;BME280;35967;50.718;7.050;2023-03-20T05:17:48;101135.50;;;9.94;87.42
50087;BME280;35967;50.718;7.050;2023-03-20T05:28:05;101120.28;;;9.77;88.00
50087;BME280;35967;50.718;7.050;2023-03-20T05:38:21;101114.19;;;9.84;87.09
50087;BME280;35967;50.718;7.050;2023-03-20T05:48:33;101127.19;;;9.72;87.23
50087;BME280;35967;50.718;7.050;2023-03-20T05:59:13;101129.75;;;9.72;87.34
50087;BME280;35967;50.718;7.050;2023-03-20T06:09:37;101159.00;;;9.60;87.40
50087;BME280;35967;50.718;7.050;2023-03-20T06:19:45;101150.53;;;9.53;88.77
50087;BME280;35967;50.718;7.050;2023-03-20T06:29:49;101156.38;;;9.68;89.12
50087;BME280;35967;50.718;7.050;2023-03-20T06:40:00;101140.25;;;9.52;88.73
50087;BME280;35967;50.718;7.050;2023-03-20T06:50:07;101157.44;;;9.46;88.84
50087;BME280;35967;50.718;7.050;2023-03-20T07:00:12;101164.13;;;9.63;88.57
50087;BME280;35967;50.718;7.050;2023-03-20T07:10:17;101164.97;;;9.65;87.59
50087;BME280;35967;50.718;7.050;2023-03-20T07:20:25;101164.00;;;9.77;86.46
50087;BME280;35967;50.718;7.050;2023-03-20T07:30:30;101192.44;;;9.58;87.03
50087;BME280;35967;50.718;7.050;2023-03-20T07:40:34;101216.13;;;9.88;86.36
50087;BME280;35967;50.718;7.050;2023-03-20T07:50:44;101225.50;;;9.94;86.62
50087;BME280;35967;50.718;7.050;2023-03-20T08:00:48;101224.59;;;10.00;86.09
50087;BME280;35967;50.718;7.050;2023-03-20T08:10:53;101248.88;;;9.71;85.39
50087;BME280;35967;50.718;7.050;2023-03-20T08:20:56;101252.31;;;9.68;83.58
50087;BME280;35967;50.718;7.050;2023-03-20T08:31:00;101263.38;;;9.79;84.26
50087;BME280;35967;50.718;7.050;2023-03-20T08:41:05;101270.13;;;9.90;82.21
50087;BME280;35967;50.718;7.050;2023-03-20T08:51:10;101267.66;;;9.77;79.78
50087;BME280;35967;50.718;7.050;2023-03-20T09:01:13;101256.25;;;10.08;79.26
50087;BME280;35967;50.718;7.050;2023-03-20T09:11:19;101258.34;;;10.51;74.68
50087;BME280;35967;50.718;7.050;2023-03-20T09:21:22;101257.25;;;9.90;73.04
50087;BME280;35967;50.718;7.050;2023-03-20T09:31:27;101250.06;;;10.23;72.06
50087;BME280;35967;50.718;7.050;2023-03-20T09:41:30;101259.78;;;10.74;79.67
50087;BME280;35967;50.718;7.050;2023-03-20T09:51:58;101259.25;;;10.49;69.81
50087;BME280;35967;50.718;7.050;2023-03-20T10:02:05;101251.63;;;10.39;69.96
50087;BME280;35967;50.718;7.050;2023-03-20T10:12:35;101247.22;;;10.48;69.44
50087;BME280;35967;50.718;7.050;2023-03-20T10:22:46;101246.47;;;10.41;66.79
50087;BME280;35967;50.718;7.050;2023-03-20T10:32:58;101249.81;;;10.48;67.77
50087;BME280;35967;50.718;7.050;2023-03-20T10:43:13;101240.44;;;10.42;67.42
50087;BME280;35967;50.718;7.050;2023-03-20T10:53:27;101240.72;;;10.86;67.34
50087;BME280;35967;50.718;7.050;2023-03-20T11:03:33;101238.44;;;10.64;66.96
50087;BME280;35967;50.718;7.050;2023-03-20T11:13:42;101241.75;;;10.74;67.55
50087;BME280;35967;50.718;7.050;2023-03-20T11:23:46;101228.25;;;10.58;61.77
50087;BME280;35967;50.718;7.050;2023-03-20T11:34:00;101229.66;;;10.81;61.51
50087;BME280;35967;50.718;7.050;2023-03-20T11:44:21;101217.81;;;10.67;61.28
50087;BME280;35967;50.718;7.050;2023-03-20T11:54:26;101201.50;;;10.67;60.85
50087;BME280;35967;50.718;7.050;2023-03-20T12:04:32;101199.69;;;10.77;60.12
50087;BME280;35967;50.718;7.050;2023-03-20T12:14:45;101179.22;;;10.64;59.88
50087;BME280;35967;50.718;7.050;2023-03-20T12:24:54;101177.47;;;10.68;60.15
50087;BME280;35967;50.718;7.050;2023-03-20T12:35:08;101162.09;;;10.63;58.38
50087;BME280;35967;50.718;7.050;2023-03-20T12:45:15;101169.00;;;10.60;59.69
50087;BME280;35967;50.718;7.050;2023-03-20T12:55:39;101158.59;;;10.67;65.15
50087;BME280;35967;50.718;7.050;2023-03-20T13:05:51;101140.75;;;10.56;65.88
50087;BME280;35967;50.718;7.050;2023-03-20T13:16:11;101133.03;;;10.56;64.36
50087;BME280;35967;50.718;7.050;2023-03-20T13:26:28;101131.81;;;10.78;64.10
50087;BME280;35967;50.718;7.050;2023-03-20T13:36:50;101129.22;;;10.81;63.35
50087;BME280;35967;50.718;7.050;2023-03-20T13:46:57;101122.34;;;10.80;63.14
50087;BME280;35967;50.718;7.050;2023-03-20T13:57:09;101118.94;;;10.78;62.38
50087;BME280;35967;50.718;7.050;2023-03-20T14:07:29;101097.94;;;11.04;61.75
50087;BME280;35967;50.718;7.050;2023-03-20T14:17:33;101092.00;;;11.00;61.65
50087;BME280;35967;50.718;7.050;2023-03-20T14:27:54;101087.84;;;11.84;68.72
50087;BME280;35967;50.718;7.050;2023-03-20T14:38:10;101086.69;;;11.57;60.17
50087;BME280;35967;50.718;7.050;2023-03-20T14:48:27;101086.94;;;11.43;60.40
50087;BME280;35967;50.718;7.050;2023-03-20T14:58:58;101072.34;;;11.43;61.92
50087;BME280;35967;50.718;7.050;2023-03-20T15:09:06;101069.63;;;11.49;61.72
50087;BME280;35967;50.718;7.050;2023-03-20T15:19:16;101061.06;;;11.47;62.44
50087;BME280;35967;50.718;7.050;2023-03-20T15:29:20;101050.53;;;11.60;62.30
50087;BME280;35967;50.718;7.050;2023-03-20T15:39:27;101041.81;;;11.65;62.19
50087;BME280;35967;50.718;7.050;2023-03-20T15:49:31;101038.94;;;11.79;62.32
50087;BME280;35967;50.718;7.050;2023-03-20T15:59:36;101030.91;;;11.93;60.76
50087;BME280;35967;50.718;7.050;2023-03-20T16:09:42;101027.66;;;11.85;60.90
50087;BME280;35967;50.718;7.050;2023-03-20T16:19:47;101031.16;;;11.82;60.41
50087;BME280;35967;50.718;7.050;2023-03-20T16:29:51;101024.34;;;11.78;60.48
50087;BME280;35967;50.718;7.050;2023-03-20T16:40:14;101016.06;;;11.64;60.49
50087;BME280;35967;50.718;7.050;2023-03-20T16:50:19;101016.78;;;11.71;61.21
50087;BME280;35967;50.718;7.050;2023-03-20T17:00:27;101004.91;;;11.63;61.09
50087;BME280;35967;50.718;7.050;2023-03-20T17:10:30;101016.22;;;11.56;61.42
50087;BME280;35967;50.718;7.050;2023-03-20T17:20:35;101022.19;;;11.58;62.31
50087;BME280;35967;50.718;7.050;2023-03-20T17:30:40;101028.25;;;11.56;61.85
50087;BME280;35967;50.718;7.050;2023-03-20T17:40:46;101026.69;;;11.48;62.62
50087;BME280;35967;50.718;7.050;2023-03-20T17:50:49;101031.91;;;11.45;62.51
50087;BME280;35967;50.718;7.050;2023-03-20T18:00:54;101029.44;;;11.39;63.31
50087;BME280;35967;50.718;7.050;2023-03-20T18:10:58;101037.16;;;11.39;63.92
50087;BME280;35967;50.718;7.050;2023-03-20T18:21:03;101039.03;;;11.31;63.99
50087;BME280;35967;50.718;7.050;2023-03-20T18:31:07;101045.91;;;11.33;64.85
50087;BME280;35967;50.718;7.050;2023-03-20T18:41:11;101045.84;;;11.35;64.85
50087;BME280;35967;50.718;7.050;2023-03-20T18:51:14;101043.41;;;11.29;65.52
50087;BME280;35967;50.718;7.050;2023-03-20T19:01:19;101037.47;;;11.24;65.04
50087;BME280;35967;50.718;7.050;2023-03-20T19:11:23;101037.44;;;11.25;64.92
50087;BME280;35967;50.718;7.050;2023-03-20T19:21:29;101034.84;;;11.27;65.37
50087;BME280;35967;50.718;7.050;2023-03-20T19:31:32;101027.16;;;11.24;65.47
50087;BME280;35967;50.718;7.050;2023-03-20T19:41:37;101034.09;;;11.20;65.13
50087;BME280;35967;50.718;7.050;2023-03-20T19:51:41;101026.38;;;11.20;65.15
50087;BME280;35967;50.718;7.050;2023-03-20T20:01:45;101023.88;;;11.17;65.73
50087;BME280;35967;50.718;7.050;2023-03-20T20:11:48;101021.28;;;11.15;65.42
50087;BME280;35967;50.718;7.050;2023-03-20T20:21:53;101025.56;;;11.16;65.54
50087;BME280;35967;50.718;7.050;2023-03-20T20:32:18;101014.44;;;11.16;65.45
50087;BME280;35967;50.718;7.050;2023-03-20T20:42:24;101021.34;;;11.14;65.84
50087;BME280;35967;50.718;7.050;2023-03-20T20:52:28;101011.16;;;11.08;65.76
50087;BME280;35967;50.718;7.050;2023-03-20T21:02:32;101015.38;;;11.10;65.78
50087;BME280;35967;50.718;7.050;2023-03-20T21:12:36;101005.53;;;11.31;66.67
50087;BME280;35967;50.718;7.050;2023-03-20T21:23:00;101011.16;;;11.06;65.97
50087;BME280;35967;50.718;7.050;2023-03-20T21:33:04;101010.38;;;11.02;65.99
50087;BME280;35967;50.718;7.050;2023-03-20T21:43:09;101016.31;;;11.06;66.17
50087;BME280;35967;50.718;7.050;2023-03-20T21:53:14;101013.84;;;11.01;66.10
50087;BME280;35967;50.718;7.050;2023-03-20T22:03:39;101019.75;;;11.07;66.37
50087;BME280;35967;50.718;7.050;2023-03-20T22:14:03;101006.13;;;11.00;66.12
50087;BME280;35967;50.718;7.050;2023-03-20T22:24:28;101020.66;;;11.04;66.33
50087;BME280;35967;50.718;7.050;2023-03-20T22:34:51;101018.91;;;11.04;66.37
50087;BME280;35967;50.718;7.050;2023-03-20T22:45:16;101025.91;;;10.98;66.43
50087;BME280;35967;50.718;7.050;2023-03-20T22:55:20;101005.28;;;10.99;67.25
50087;BME280;35967;50.718;7.050;2023-03-20T23:05:25;100996.78;;;10.96;67.15
50087;BME280;35967;50.718;7.050;2023-03-20T23:15:28;100992.44;;;10.96;67.69
50087;BME280;35967;50.718;7.050;2023-03-20T23:25:35;100989.13;;;10.91;67.65
50087;BME280;35967;50.718;7.050;2023-03-20T23:35:41;100987.41;;;10.90;68.65
50087;BME280;35967;50.718;7.050;2023-03-20T23:45:45;100972.03;;;10.85;68.55
50087;BME280;35967;50.718;7.050;2023-03-20T23:55:52;100961.72;;;10.87;68.79
